KCSQ

Creston Municipal Airport

Creston, Iowa, USA
METAR KCSQ 210355Z AUTO 01011G17KT 10SM BKN009 OVC015 19/18 A2992 RMK AO2
Observed Flight Rules
Aug-21 @ 03:55 UTC (17 minutes ago) Instrument Flight Rules
Wind Visibility Clouds
10° at 11 knots
 Gusting to 17 knots
10 miles
  • Broken at 900' AGL
  • Overcast at 1,500' AGL
Temperatures Readings
Current 19°C / 66°F
Dewpoint 18°C / 64°F
Humidity 94%
Altimeter 29.92" Hg
Pressure 1013 hPa
Elevation 394
METAR KCSQ 210355Z AUTO 01011G17KT 10SM BKN009 OVC015 19/18 A2992 RMK AO2
Observed Flight Rules
Aug-21 @ 03:55 UTC
(17 minutes ago)
IFR
Wind Visibility
10° at 11 knots
 Gusting to 17 knots
10 miles
Clouds
  • Broken at 900' AGL
  • Overcast at 1,500' AGL
Temperature Dewpoint
19°C / 66°F 18°C / 64°F
Humidity Altimeter Pressure
94% 29.92" Hg 1013 hPa